sensor_id;sensor_type;location;lat;lon;timestamp;P1;durP1;ratioP1;P2;durP2;ratioP2
31730;SDS011;18310;55.586;12.286;2023-02-02T00:01:51;7.43;;;1.35;;
31730;SDS011;18310;55.586;12.286;2023-02-02T00:04:55;10.82;;;2.00;;
31730;SDS011;18310;55.586;12.286;2023-02-02T00:07:59;17.43;;;2.87;;
31730;SDS011;18310;55.586;12.286;2023-02-02T00:11:03;13.55;;;2.78;;
31730;SDS011;18310;55.586;12.286;2023-02-02T00:14:08;18.20;;;3.40;;
31730;SDS011;18310;55.586;12.286;2023-02-02T00:17:12;9.85;;;2.60;;
31730;SDS011;18310;55.586;12.286;2023-02-02T00:20:15;13.47;;;2.50;;
31730;SDS011;18310;55.586;12.286;2023-02-02T00:23:19;9.90;;;2.03;;
31730;SDS011;18310;55.586;12.286;2023-02-02T00:26:22;11.00;;;2.83;;
31730;SDS011;18310;55.586;12.286;2023-02-02T00:29:27;11.75;;;2.28;;
31730;SDS011;18310;55.586;12.286;2023-02-02T00:32:32;15.55;;;2.30;;
31730;SDS011;18310;55.586;12.286;2023-02-02T00:35:35;10.77;;;2.25;;
31730;SDS011;18310;55.586;12.286;2023-02-02T00:38:43;11.82;;;2.28;;
31730;SDS011;18310;55.586;12.286;2023-02-02T00:41:47;12.57;;;2.70;;
31730;SDS011;18310;55.586;12.286;2023-02-02T00:44:51;12.40;;;2.63;;
31730;SDS011;18310;55.586;12.286;2023-02-02T00:48:12;13.55;;;1.90;;
31730;SDS011;18310;55.586;12.286;2023-02-02T00:51:16;9.02;;;1.95;;
31730;SDS011;18310;55.586;12.286;2023-02-02T00:54:19;10.82;;;1.90;;
31730;SDS011;18310;55.586;12.286;2023-02-02T00:57:22;10.30;;;1.90;;
31730;SDS011;18310;55.586;12.286;2023-02-02T01:00:27;10.27;;;2.20;;
31730;SDS011;18310;55.586;12.286;2023-02-02T01:03:30;11.07;;;2.00;;
31730;SDS011;18310;55.586;12.286;2023-02-02T01:06:33;9.57;;;2.13;;
31730;SDS011;18310;55.586;12.286;2023-02-02T01:09:36;11.27;;;2.00;;
31730;SDS011;18310;55.586;12.286;2023-02-02T01:12:39;7.43;;;2.03;;
31730;SDS011;18310;55.586;12.286;2023-02-02T01:15:44;6.32;;;1.55;;
31730;SDS011;18310;55.586;12.286;2023-02-02T01:18:48;11.10;;;1.67;;
31730;SDS011;18310;55.586;12.286;2023-02-02T01:21:52;7.20;;;1.60;;
31730;SDS011;18310;55.586;12.286;2023-02-02T01:24:55;6.65;;;1.70;;
31730;SDS011;18310;55.586;12.286;2023-02-02T01:27:58;12.87;;;2.17;;
31730;SDS011;18310;55.586;12.286;2023-02-02T01:31:06;10.43;;;1.67;;
31730;SDS011;18310;55.586;12.286;2023-02-02T01:34:13;8.75;;;1.45;;
31730;SDS011;18310;55.586;12.286;2023-02-02T01:37:23;9.48;;;1.30;;
31730;SDS011;18310;55.586;12.286;2023-02-02T01:40:26;4.78;;;1.65;;
31730;SDS011;18310;55.586;12.286;2023-02-02T01:43:47;8.55;;;1.15;;
31730;SDS011;18310;55.586;12.286;2023-02-02T01:46:56;11.10;;;1.77;;
31730;SDS011;18310;55.586;12.286;2023-02-02T01:49:59;6.13;;;1.40;;
31730;SDS011;18310;55.586;12.286;2023-02-02T01:53:04;5.88;;;1.13;;
31730;SDS011;18310;55.586;12.286;2023-02-02T01:56:10;6.22;;;1.27;;
31730;SDS011;18310;55.586;12.286;2023-02-02T01:59:29;7.97;;;1.10;;
31730;SDS011;18310;55.586;12.286;2023-02-02T02:02:35;9.75;;;1.23;;
31730;SDS011;18310;55.586;12.286;2023-02-02T02:05:43;4.75;;;1.13;;
31730;SDS011;18310;55.586;12.286;2023-02-02T02:08:54;10.13;;;1.27;;
31730;SDS011;18310;55.586;12.286;2023-02-02T02:12:00;7.05;;;1.13;;
31730;SDS011;18310;55.586;12.286;2023-02-02T02:15:03;7.30;;;1.30;;
31730;SDS011;18310;55.586;12.286;2023-02-02T02:18:29;3.28;;;1.10;;
31730;SDS011;18310;55.586;12.286;2023-02-02T02:21:53;5.20;;;1.17;;
31730;SDS011;18310;55.586;12.286;2023-02-02T02:25:28;9.48;;;1.48;;
31730;SDS011;18310;55.586;12.286;2023-02-02T02:33:03;6.85;;;1.20;;
31730;SDS011;18310;55.586;12.286;2023-02-02T02:36:14;7.43;;;1.38;;
31730;SDS011;18310;55.586;12.286;2023-02-02T02:39:28;4.57;;;0.98;;
31730;SDS011;18310;55.586;12.286;2023-02-02T02:42:41;8.23;;;1.40;;
31730;SDS011;18310;55.586;12.286;2023-02-02T02:45:50;11.55;;;2.03;;
31730;SDS011;18310;55.586;12.286;2023-02-02T02:48:57;4.72;;;0.88;;
31730;SDS011;18310;55.586;12.286;2023-02-02T02:52:02;6.53;;;1.08;;
31730;SDS011;18310;55.586;12.286;2023-02-02T02:55:05;4.05;;;0.90;;
31730;SDS011;18310;55.586;12.286;2023-02-02T02:58:12;2.55;;;0.65;;
31730;SDS011;18310;55.586;12.286;2023-02-02T03:01:24;2.75;;;0.70;;
31730;SDS011;18310;55.586;12.286;2023-02-02T03:04:38;6.53;;;1.08;;
31730;SDS011;18310;55.586;12.286;2023-02-02T03:07:56;5.57;;;0.93;;
31730;SDS011;18310;55.586;12.286;2023-02-02T03:11:11;6.65;;;0.90;;
31730;SDS011;18310;55.586;12.286;2023-02-02T03:14:16;6.97;;;2.10;;
31730;SDS011;18310;55.586;12.286;2023-02-02T03:17:20;6.55;;;0.95;;
31730;SDS011;18310;55.586;12.286;2023-02-02T03:20:25;2.22;;;0.55;;
31730;SDS011;18310;55.586;12.286;2023-02-02T03:23:29;8.48;;;1.20;;
31730;SDS011;18310;55.586;12.286;2023-02-02T03:29:36;3.40;;;1.10;;
31730;SDS011;18310;55.586;12.286;2023-02-02T03:32:40;7.10;;;0.90;;
31730;SDS011;18310;55.586;12.286;2023-02-02T03:35:45;4.32;;;0.60;;
31730;SDS011;18310;55.586;12.286;2023-02-02T03:38:49;7.18;;;0.77;;
31730;SDS011;18310;55.586;12.286;2023-02-02T03:41:52;2.47;;;0.77;;
31730;SDS011;18310;55.586;12.286;2023-02-02T03:44:56;3.13;;;0.63;;
31730;SDS011;18310;55.586;12.286;2023-02-02T03:48:02;4.57;;;0.60;;
31730;SDS011;18310;55.586;12.286;2023-02-02T03:51:08;6.20;;;1.60;;
31730;SDS011;18310;55.586;12.286;2023-02-02T03:54:13;4.40;;;0.75;;
31730;SDS011;18310;55.586;12.286;2023-02-02T03:57:17;3.38;;;0.70;;
31730;SDS011;18310;55.586;12.286;2023-02-02T04:00:20;4.68;;;1.13;;
31730;SDS011;18310;55.586;12.286;2023-02-02T04:03:24;4.85;;;1.00;;
31730;SDS011;18310;55.586;12.286;2023-02-02T04:06:29;3.75;;;0.60;;
31730;SDS011;18310;55.586;12.286;2023-02-02T04:09:34;5.60;;;0.80;;
31730;SDS011;18310;55.586;12.286;2023-02-02T04:12:39;4.82;;;0.98;;
31730;SDS011;18310;55.586;12.286;2023-02-02T04:15:42;7.75;;;0.77;;
31730;SDS011;18310;55.586;12.286;2023-02-02T04:18:46;7.15;;;1.20;;
31730;SDS011;18310;55.586;12.286;2023-02-02T04:21:51;6.72;;;1.10;;
31730;SDS011;18310;55.586;12.286;2023-02-02T04:24:56;4.75;;;0.93;;
31730;SDS011;18310;55.586;12.286;2023-02-02T04:27:59;7.15;;;1.42;;
31730;SDS011;18310;55.586;12.286;2023-02-02T04:31:03;8.07;;;1.27;;
31730;SDS011;18310;55.586;12.286;2023-02-02T04:34:06;4.25;;;0.68;;
31730;SDS011;18310;55.586;12.286;2023-02-02T04:37:11;4.03;;;0.77;;
31730;SDS011;18310;55.586;12.286;2023-02-02T04:40:15;5.93;;;0.60;;
31730;SDS011;18310;55.586;12.286;2023-02-02T04:43:19;8.02;;;0.85;;
31730;SDS011;18310;55.586;12.286;2023-02-02T04:46:22;4.25;;;0.75;;
31730;SDS011;18310;55.586;12.286;2023-02-02T04:49:26;4.65;;;0.60;;
31730;SDS011;18310;55.586;12.286;2023-02-02T04:52:32;3.65;;;0.70;;
31730;SDS011;18310;55.586;12.286;2023-02-02T04:55:36;5.78;;;1.00;;
31730;SDS011;18310;55.586;12.286;2023-02-02T04:58:40;4.18;;;1.10;;
31730;SDS011;18310;55.586;12.286;2023-02-02T05:01:44;3.75;;;1.08;;
31730;SDS011;18310;55.586;12.286;2023-02-02T05:04:48;2.17;;;0.70;;
31730;SDS011;18310;55.586;12.286;2023-02-02T05:07:53;4.68;;;0.80;;
31730;SDS011;18310;55.586;12.286;2023-02-02T05:10:57;4.07;;;0.65;;
31730;SDS011;18310;55.586;12.286;2023-02-02T05:14:00;2.72;;;0.60;;
31730;SDS011;18310;55.586;12.286;2023-02-02T05:17:04;4.35;;;0.60;;
31730;SDS011;18310;55.586;12.286;2023-02-02T05:20:09;4.78;;;0.60;;
31730;SDS011;18310;55.586;12.286;2023-02-02T05:23:18;2.35;;;0.50;;
31730;SDS011;18310;55.586;12.286;2023-02-02T05:26:22;4.10;;;0.47;;
31730;SDS011;18310;55.586;12.286;2023-02-02T05:29:27;4.20;;;0.70;;
31730;SDS011;18310;55.586;12.286;2023-02-02T05:32:31;3.47;;;0.65;;
31730;SDS011;18310;55.586;12.286;2023-02-02T05:35:35;4.30;;;0.85;;
31730;SDS011;18310;55.586;12.286;2023-02-02T05:38:40;2.75;;;0.85;;
31730;SDS011;18310;55.586;12.286;2023-02-02T05:41:43;4.80;;;0.52;;
31730;SDS011;18310;55.586;12.286;2023-02-02T05:44:47;3.63;;;0.50;;
31730;SDS011;18310;55.586;12.286;2023-02-02T05:47:52;2.47;;;0.43;;
31730;SDS011;18310;55.586;12.286;2023-02-02T05:50:57;1.35;;;0.40;;
31730;SDS011;18310;55.586;12.286;2023-02-02T05:54:04;3.20;;;0.70;;
31730;SDS011;18310;55.586;12.286;2023-02-02T05:57:08;3.10;;;0.65;;
31730;SDS011;18310;55.586;12.286;2023-02-02T06:00:12;3.20;;;0.88;;
31730;SDS011;18310;55.586;12.286;2023-02-02T06:03:17;6.28;;;0.63;;
31730;SDS011;18310;55.586;12.286;2023-02-02T06:06:21;3.45;;;0.63;;
31730;SDS011;18310;55.586;12.286;2023-02-02T06:09:26;7.38;;;0.70;;
31730;SDS011;18310;55.586;12.286;2023-02-02T06:12:29;2.05;;;0.57;;
31730;SDS011;18310;55.586;12.286;2023-02-02T06:15:33;3.63;;;0.70;;
31730;SDS011;18310;55.586;12.286;2023-02-02T06:18:37;2.47;;;0.40;;
31730;SDS011;18310;55.586;12.286;2023-02-02T06:21:41;9.15;;;1.38;;
31730;SDS011;18310;55.586;12.286;2023-02-02T06:24:45;3.17;;;0.70;;
31730;SDS011;18310;55.586;12.286;2023-02-02T06:27:49;3.97;;;0.50;;
31730;SDS011;18310;55.586;12.286;2023-02-02T06:31:01;6.35;;;0.90;;
31730;SDS011;18310;55.586;12.286;2023-02-02T06:34:06;2.30;;;0.47;;
31730;SDS011;18310;55.586;12.286;2023-02-02T06:37:13;6.10;;;0.40;;
31730;SDS011;18310;55.586;12.286;2023-02-02T06:40:18;3.83;;;0.60;;
31730;SDS011;18310;55.586;12.286;2023-02-02T06:43:22;1.65;;;0.52;;
31730;SDS011;18310;55.586;12.286;2023-02-02T06:46:26;3.45;;;0.28;;
31730;SDS011;18310;55.586;12.286;2023-02-02T06:49:30;3.47;;;0.57;;
31730;SDS011;18310;55.586;12.286;2023-02-02T06:52:33;2.78;;;0.40;;
31730;SDS011;18310;55.586;12.286;2023-02-02T06:55:38;3.70;;;0.50;;
31730;SDS011;18310;55.586;12.286;2023-02-02T06:58:41;6.22;;;0.63;;
31730;SDS011;18310;55.586;12.286;2023-02-02T07:04:50;1.73;;;0.30;;
31730;SDS011;18310;55.586;12.286;2023-02-02T07:07:53;3.97;;;0.95;;
31730;SDS011;18310;55.586;12.286;2023-02-02T07:10:59;2.60;;;0.43;;
31730;SDS011;18310;55.586;12.286;2023-02-02T07:14:16;4.10;;;0.70;;
31730;SDS011;18310;55.586;12.286;2023-02-02T07:17:20;4.68;;;0.85;;
31730;SDS011;18310;55.586;12.286;2023-02-02T07:20:23;3.20;;;1.40;;
31730;SDS011;18310;55.586;12.286;2023-02-02T07:23:27;3.90;;;1.10;;
31730;SDS011;18310;55.586;12.286;2023-02-02T07:26:34;4.40;;;1.20;;
31730;SDS011;18310;55.586;12.286;2023-02-02T07:29:37;2.78;;;0.95;;
31730;SDS011;18310;55.586;12.286;2023-02-02T07:32:44;4.00;;;0.70;;
31730;SDS011;18310;55.586;12.286;2023-02-02T07:35:48;4.20;;;0.80;;
31730;SDS011;18310;55.586;12.286;2023-02-02T07:38:52;1.77;;;0.68;;
31730;SDS011;18310;55.586;12.286;2023-02-02T07:41:59;4.57;;;0.70;;
31730;SDS011;18310;55.586;12.286;2023-02-02T07:45:02;3.03;;;0.90;;
31730;SDS011;18310;55.586;12.286;2023-02-02T07:48:26;2.65;;;0.70;;
31730;SDS011;18310;55.586;12.286;2023-02-02T07:51:30;1.83;;;0.50;;
31730;SDS011;18310;55.586;12.286;2023-02-02T07:54:34;1.13;;;0.35;;
31730;SDS011;18310;55.586;12.286;2023-02-02T07:57:39;3.33;;;0.80;;
31730;SDS011;18310;55.586;12.286;2023-02-02T08:00:43;1.80;;;0.70;;
31730;SDS011;18310;55.586;12.286;2023-02-02T08:06:51;2.28;;;0.38;;
31730;SDS011;18310;55.586;12.286;2023-02-02T08:09:54;3.08;;;1.33;;
31730;SDS011;18310;55.586;12.286;2023-02-02T08:12:59;3.60;;;1.10;;
31730;SDS011;18310;55.586;12.286;2023-02-02T08:16:03;6.00;;;0.75;;
31730;SDS011;18310;55.586;12.286;2023-02-02T08:19:08;2.63;;;0.50;;
31730;SDS011;18310;55.586;12.286;2023-02-02T08:22:11;3.38;;;0.60;;
31730;SDS011;18310;55.586;12.286;2023-02-02T08:25:15;6.80;;;0.77;;
31730;SDS011;18310;55.586;12.286;2023-02-02T08:28:20;3.42;;;1.00;;
31730;SDS011;18310;55.586;12.286;2023-02-02T08:31:25;1.77;;;0.80;;
31730;SDS011;18310;55.586;12.286;2023-02-02T08:34:30;3.17;;;0.63;;
31730;SDS011;18310;55.586;12.286;2023-02-02T08:37:36;2.72;;;0.40;;
31730;SDS011;18310;55.586;12.286;2023-02-02T08:40:40;4.40;;;0.50;;
31730;SDS011;18310;55.586;12.286;2023-02-02T08:43:45;2.97;;;0.73;;
31730;SDS011;18310;55.586;12.286;2023-02-02T08:46:48;1.63;;;0.40;;
31730;SDS011;18310;55.586;12.286;2023-02-02T08:49:52;5.60;;;1.23;;
31730;SDS011;18310;55.586;12.286;2023-02-02T08:52:55;2.90;;;0.85;;
31730;SDS011;18310;55.586;12.286;2023-02-02T08:55:59;4.93;;;1.00;;
31730;SDS011;18310;55.586;12.286;2023-02-02T08:59:05;2.47;;;0.70;;
31730;SDS011;18310;55.586;12.286;2023-02-02T09:02:08;1.52;;;0.40;;
31730;SDS011;18310;55.586;12.286;2023-02-02T09:05:14;3.95;;;0.70;;
31730;SDS011;18310;55.586;12.286;2023-02-02T09:08:17;3.67;;;0.70;;
31730;SDS011;18310;55.586;12.286;2023-02-02T09:11:21;4.63;;;0.75;;
31730;SDS011;18310;55.586;12.286;2023-02-02T09:14:26;2.42;;;0.70;;
31730;SDS011;18310;55.586;12.286;2023-02-02T09:17:29;5.97;;;0.60;;
31730;SDS011;18310;55.586;12.286;2023-02-02T09:20:33;2.77;;;0.80;;
31730;SDS011;18310;55.586;12.286;2023-02-02T09:23:37;8.27;;;0.70;;
31730;SDS011;18310;55.586;12.286;2023-02-02T09:26:42;5.30;;;0.70;;
31730;SDS011;18310;55.586;12.286;2023-02-02T09:29:48;3.58;;;0.65;;
31730;SDS011;18310;55.586;12.286;2023-02-02T09:32:53;3.80;;;0.35;;
31730;SDS011;18310;55.586;12.286;2023-02-02T09:36:01;5.43;;;0.60;;
31730;SDS011;18310;55.586;12.286;2023-02-02T09:39:06;5.72;;;0.65;;
31730;SDS011;18310;55.586;12.286;2023-02-02T09:42:21;2.95;;;0.47;;
31730;SDS011;18310;55.586;12.286;2023-02-02T09:45:46;4.68;;;0.70;;
31730;SDS011;18310;55.586;12.286;2023-02-02T09:49:02;2.10;;;0.22;;
31730;SDS011;18310;55.586;12.286;2023-02-02T09:52:13;1.65;;;0.60;;
31730;SDS011;18310;55.586;12.286;2023-02-02T09:55:24;2.90;;;0.40;;
31730;SDS011;18310;55.586;12.286;2023-02-02T09:58:35;4.57;;;0.90;;
31730;SDS011;18310;55.586;12.286;2023-02-02T10:01:51;2.97;;;0.40;;
31730;SDS011;18310;55.586;12.286;2023-02-02T10:04:59;2.08;;;0.50;;
31730;SDS011;18310;55.586;12.286;2023-02-02T10:08:12;1.88;;;0.50;;
31730;SDS011;18310;55.586;12.286;2023-02-02T10:11:36;5.43;;;0.40;;
31730;SDS011;18310;55.586;12.286;2023-02-02T10:14:48;1.85;;;0.52;;
31730;SDS011;18310;55.586;12.286;2023-02-02T10:18:01;3.85;;;0.40;;
31730;SDS011;18310;55.586;12.286;2023-02-02T10:21:17;4.28;;;0.47;;
31730;SDS011;18310;55.586;12.286;2023-02-02T10:24:33;9.52;;;0.68;;
31730;SDS011;18310;55.586;12.286;2023-02-02T10:27:38;7.05;;;1.15;;
31730;SDS011;18310;55.586;12.286;2023-02-02T10:30:44;4.40;;;0.57;;
31730;SDS011;18310;55.586;12.286;2023-02-02T10:33:59;3.00;;;0.50;;
31730;SDS011;18310;55.586;12.286;2023-02-02T10:37:14;9.27;;;0.98;;
31730;SDS011;18310;55.586;12.286;2023-02-02T10:40:35;3.33;;;0.50;;
31730;SDS011;18310;55.586;12.286;2023-02-02T10:43:59;3.08;;;0.55;;
31730;SDS011;18310;55.586;12.286;2023-02-02T10:47:15;2.17;;;0.50;;
31730;SDS011;18310;55.586;12.286;2023-02-02T10:50:30;2.33;;;0.30;;
31730;SDS011;18310;55.586;12.286;2023-02-02T10:53:33;2.58;;;0.47;;
31730;SDS011;18310;55.586;12.286;2023-02-02T10:56:37;2.13;;;0.57;;
31730;SDS011;18310;55.586;12.286;2023-02-02T10:59:54;4.35;;;0.52;;
31730;SDS011;18310;55.586;12.286;2023-02-02T11:03:07;1.65;;;0.32;;
31730;SDS011;18310;55.586;12.286;2023-02-02T11:06:15;1.45;;;0.30;;
31730;SDS011;18310;55.586;12.286;2023-02-02T11:09:38;2.50;;;0.57;;
31730;SDS011;18310;55.586;12.286;2023-02-02T11:12:44;2.03;;;0.50;;
31730;SDS011;18310;55.586;12.286;2023-02-02T11:19:25;6.32;;;0.95;;
31730;SDS011;18310;55.586;12.286;2023-02-02T11:22:33;1.90;;;0.30;;
31730;SDS011;18310;55.586;12.286;2023-02-02T11:25:39;7.97;;;0.70;;
31730;SDS011;18310;55.586;12.286;2023-02-02T11:28:44;4.35;;;0.77;;
31730;SDS011;18310;55.586;12.286;2023-02-02T11:31:51;2.17;;;0.47;;
31730;SDS011;18310;55.586;12.286;2023-02-02T11:35:03;1.40;;;0.40;;
31730;SDS011;18310;55.586;12.286;2023-02-02T11:38:23;4.30;;;0.60;;
31730;SDS011;18310;55.586;12.286;2023-02-02T11:41:27;2.92;;;0.43;;
31730;SDS011;18310;55.586;12.286;2023-02-02T11:44:33;4.18;;;0.70;;
31730;SDS011;18310;55.586;12.286;2023-02-02T11:47:42;3.80;;;0.50;;
31730;SDS011;18310;55.586;12.286;2023-02-02T11:50:48;3.45;;;0.50;;
31730;SDS011;18310;55.586;12.286;2023-02-02T11:54:01;1.52;;;0.38;;
31730;SDS011;18310;55.586;12.286;2023-02-02T11:57:07;1.77;;;0.47;;
31730;SDS011;18310;55.586;12.286;2023-02-02T12:00:15;5.10;;;0.45;;
31730;SDS011;18310;55.586;12.286;2023-02-02T12:03:29;3.20;;;0.60;;
31730;SDS011;18310;55.586;12.286;2023-02-02T12:06:37;3.72;;;0.40;;
31730;SDS011;18310;55.586;12.286;2023-02-02T12:12:49;1.35;;;0.35;;
31730;SDS011;18310;55.586;12.286;2023-02-02T12:16:02;4.68;;;0.60;;
31730;SDS011;18310;55.586;12.286;2023-02-02T12:19:23;3.80;;;0.50;;
31730;SDS011;18310;55.586;12.286;2023-02-02T12:26:31;3.33;;;0.40;;
31730;SDS011;18310;55.586;12.286;2023-02-02T12:29:45;2.22;;;0.40;;
31730;SDS011;18310;55.586;12.286;2023-02-02T12:33:21;3.35;;;0.73;;
31730;SDS011;18310;55.586;12.286;2023-02-02T12:36:39;4.93;;;0.73;;
31730;SDS011;18310;55.586;12.286;2023-02-02T12:39:55;5.88;;;0.75;;
31730;SDS011;18310;55.586;12.286;2023-02-02T12:43:20;2.60;;;0.50;;
31730;SDS011;18310;55.586;12.286;2023-02-02T12:46:38;3.45;;;0.50;;
31730;SDS011;18310;55.586;12.286;2023-02-02T12:50:15;1.42;;;0.40;;
31730;SDS011;18310;55.586;12.286;2023-02-02T12:53:36;2.88;;;0.35;;
31730;SDS011;18310;55.586;12.286;2023-02-02T12:57:19;3.88;;;0.40;;
31730;SDS011;18310;55.586;12.286;2023-02-02T13:01:01;3.55;;;0.43;;
31730;SDS011;18310;55.586;12.286;2023-02-02T13:04:48;3.22;;;0.52;;
31730;SDS011;18310;55.586;12.286;2023-02-02T13:08:13;3.55;;;0.60;;
31730;SDS011;18310;55.586;12.286;2023-02-02T13:11:23;2.63;;;0.40;;
31730;SDS011;18310;55.586;12.286;2023-02-02T13:14:39;4.03;;;0.70;;
31730;SDS011;18310;55.586;12.286;2023-02-02T13:17:50;4.43;;;0.65;;
31730;SDS011;18310;55.586;12.286;2023-02-02T13:20:57;2.47;;;0.57;;
31730;SDS011;18310;55.586;12.286;2023-02-02T13:24:06;3.00;;;0.63;;
31730;SDS011;18310;55.586;12.286;2023-02-02T13:27:20;3.40;;;0.50;;
31730;SDS011;18310;55.586;12.286;2023-02-02T13:30:29;1.83;;;0.45;;
31730;SDS011;18310;55.586;12.286;2023-02-02T13:33:36;3.15;;;0.60;;
31730;SDS011;18310;55.586;12.286;2023-02-02T13:36:45;5.43;;;0.77;;
31730;SDS011;18310;55.586;12.286;2023-02-02T13:39:55;4.38;;;0.52;;
31730;SDS011;18310;55.586;12.286;2023-02-02T13:43:04;3.60;;;0.90;;
31730;SDS011;18310;55.586;12.286;2023-02-02T13:46:28;4.72;;;0.70;;
31730;SDS011;18310;55.586;12.286;2023-02-02T13:49:42;4.05;;;0.70;;
31730;SDS011;18310;55.586;12.286;2023-02-02T13:52:57;8.52;;;1.10;;
31730;SDS011;18310;55.586;12.286;2023-02-02T13:59:58;3.33;;;0.52;;
31730;SDS011;18310;55.586;12.286;2023-02-02T14:03:06;7.95;;;1.27;;
31730;SDS011;18310;55.586;12.286;2023-02-02T14:06:48;6.15;;;0.70;;
31730;SDS011;18310;55.586;12.286;2023-02-02T14:09:59;4.88;;;1.02;;
31730;SDS011;18310;55.586;12.286;2023-02-02T14:13:05;2.90;;;0.88;;
31730;SDS011;18310;55.586;12.286;2023-02-02T14:16:43;3.70;;;0.68;;
31730;SDS011;18310;55.586;12.286;2023-02-02T14:19:53;5.18;;;0.73;;
31730;SDS011;18310;55.586;12.286;2023-02-02T14:22:59;4.45;;;0.77;;
31730;SDS011;18310;55.586;12.286;2023-02-02T14:26:03;6.72;;;1.00;;
31730;SDS011;18310;55.586;12.286;2023-02-02T14:29:32;6.32;;;0.88;;
31730;SDS011;18310;55.586;12.286;2023-02-02T14:36:28;8.88;;;1.67;;
31730;SDS011;18310;55.586;12.286;2023-02-02T14:42:44;9.45;;;1.52;;
31730;SDS011;18310;55.586;12.286;2023-02-02T14:46:22;7.93;;;1.20;;
31730;SDS011;18310;55.586;12.286;2023-02-02T14:49:35;3.83;;;1.00;;
31730;SDS011;18310;55.586;12.286;2023-02-02T14:52:39;5.93;;;1.00;;
31730;SDS011;18310;55.586;12.286;2023-02-02T14:55:49;2.83;;;1.00;;
31730;SDS011;18310;55.586;12.286;2023-02-02T14:59:02;7.30;;;1.25;;
31730;SDS011;18310;55.586;12.286;2023-02-02T15:02:12;5.07;;;0.70;;
31730;SDS011;18310;55.586;12.286;2023-02-02T15:05:33;6.78;;;0.80;;
31730;SDS011;18310;55.586;12.286;2023-02-02T15:15:48;11.02;;;1.20;;
31730;SDS011;18310;55.586;12.286;2023-02-02T15:19:06;7.40;;;1.05;;
31730;SDS011;18310;55.586;12.286;2023-02-02T15:22:22;6.88;;;1.50;;
31730;SDS011;18310;55.586;12.286;2023-02-02T15:25:34;3.78;;;1.00;;
31730;SDS011;18310;55.586;12.286;2023-02-02T15:28:48;8.10;;;1.85;;
31730;SDS011;18310;55.586;12.286;2023-02-02T15:31:57;8.00;;;2.10;;
31730;SDS011;18310;55.586;12.286;2023-02-02T15:35:02;6.35;;;0.98;;
31730;SDS011;18310;55.586;12.286;2023-02-02T15:38:16;6.55;;;0.95;;
31730;SDS011;18310;55.586;12.286;2023-02-02T15:41:23;6.55;;;1.00;;
31730;SDS011;18310;55.586;12.286;2023-02-02T15:44:34;5.45;;;1.05;;
31730;SDS011;18310;55.586;12.286;2023-02-02T15:47:39;10.15;;;1.30;;
31730;SDS011;18310;55.586;12.286;2023-02-02T15:50:43;5.18;;;1.10;;
31730;SDS011;18310;55.586;12.286;2023-02-02T15:53:48;8.25;;;1.20;;
31730;SDS011;18310;55.586;12.286;2023-02-02T15:56:55;6.22;;;1.00;;
31730;SDS011;18310;55.586;12.286;2023-02-02T16:00:20;5.00;;;0.70;;
31730;SDS011;18310;55.586;12.286;2023-02-02T16:03:30;5.05;;;0.85;;
31730;SDS011;18310;55.586;12.286;2023-02-02T16:06:44;4.82;;;0.70;;
31730;SDS011;18310;55.586;12.286;2023-02-02T16:12:51;4.03;;;1.00;;
31730;SDS011;18310;55.586;12.286;2023-02-02T16:15:58;7.25;;;1.33;;
31730;SDS011;18310;55.586;12.286;2023-02-02T16:19:09;9.25;;;1.38;;
31730;SDS011;18310;55.586;12.286;2023-02-02T16:22:17;2.45;;;0.70;;
31730;SDS011;18310;55.586;12.286;2023-02-02T16:25:25;4.93;;;0.95;;
31730;SDS011;18310;55.586;12.286;2023-02-02T16:28:32;4.40;;;0.70;;
31730;SDS011;18310;55.586;12.286;2023-02-02T16:31:37;5.97;;;0.80;;
31730;SDS011;18310;55.586;12.286;2023-02-02T16:34:41;5.10;;;1.42;;
31730;SDS011;18310;55.586;12.286;2023-02-02T16:37:47;5.32;;;1.60;;
31730;SDS011;18310;55.586;12.286;2023-02-02T16:41:00;4.40;;;1.20;;
31730;SDS011;18310;55.586;12.286;2023-02-02T16:44:27;3.47;;;1.00;;
31730;SDS011;18310;55.586;12.286;2023-02-02T16:47:34;5.82;;;1.23;;
31730;SDS011;18310;55.586;12.286;2023-02-02T16:50:40;5.68;;;1.38;;
31730;SDS011;18310;55.586;12.286;2023-02-02T16:54:10;8.10;;;1.60;;
31730;SDS011;18310;55.586;12.286;2023-02-02T16:57:21;4.88;;;1.55;;
31730;SDS011;18310;55.586;12.286;2023-02-02T17:00:29;6.07;;;2.35;;
31730;SDS011;18310;55.586;12.286;2023-02-02T17:03:37;9.10;;;2.95;;
31730;SDS011;18310;55.586;12.286;2023-02-02T17:06:53;8.05;;;2.13;;
31730;SDS011;18310;55.586;12.286;2023-02-02T17:10:09;7.15;;;2.22;;
31730;SDS011;18310;55.586;12.286;2023-02-02T17:13:33;4.40;;;1.55;;
31730;SDS011;18310;55.586;12.286;2023-02-02T17:16:42;7.25;;;1.58;;
31730;SDS011;18310;55.586;12.286;2023-02-02T17:19:46;6.35;;;1.65;;
31730;SDS011;18310;55.586;12.286;2023-02-02T17:22:50;4.68;;;1.67;;
31730;SDS011;18310;55.586;12.286;2023-02-02T17:25:56;4.55;;;1.48;;
31730;SDS011;18310;55.586;12.286;2023-02-02T17:29:02;9.48;;;2.10;;
31730;SDS011;18310;55.586;12.286;2023-02-02T17:32:07;7.28;;;2.08;;
31730;SDS011;18310;55.586;12.286;2023-02-02T17:35:22;14.35;;;3.60;;
31730;SDS011;18310;55.586;12.286;2023-02-02T17:38:43;16.23;;;5.57;;
31730;SDS011;18310;55.586;12.286;2023-02-02T17:41:47;24.38;;;9.30;;
31730;SDS011;18310;55.586;12.286;2023-02-02T17:44:51;21.30;;;9.57;;
31730;SDS011;18310;55.586;12.286;2023-02-02T17:47:55;28.45;;;12.43;;
31730;SDS011;18310;55.586;12.286;2023-02-02T17:51:00;26.05;;;12.80;;
31730;SDS011;18310;55.586;12.286;2023-02-02T17:54:10;24.38;;;11.30;;
31730;SDS011;18310;55.586;12.286;2023-02-02T17:57:16;28.90;;;11.15;;
31730;SDS011;18310;55.586;12.286;2023-02-02T18:00:21;24.27;;;11.18;;
31730;SDS011;18310;55.586;12.286;2023-02-02T18:03:26;23.77;;;10.43;;
31730;SDS011;18310;55.586;12.286;2023-02-02T18:06:36;24.23;;;11.35;;
31730;SDS011;18310;55.586;12.286;2023-02-02T18:09:39;28.58;;;12.13;;
31730;SDS011;18310;55.586;12.286;2023-02-02T18:12:42;26.55;;;12.00;;
31730;SDS011;18310;55.586;12.286;2023-02-02T18:15:46;26.40;;;11.83;;
31730;SDS011;18310;55.586;12.286;2023-02-02T18:18:50;26.33;;;11.65;;
31730;SDS011;18310;55.586;12.286;2023-02-02T18:24:58;26.83;;;10.48;;
31730;SDS011;18310;55.586;12.286;2023-02-02T18:28:02;25.10;;;9.60;;
31730;SDS011;18310;55.586;12.286;2023-02-02T18:31:06;20.48;;;9.82;;
31730;SDS011;18310;55.586;12.286;2023-02-02T18:34:10;20.63;;;8.73;;
31730;SDS011;18310;55.586;12.286;2023-02-02T18:37:15;18.50;;;7.93;;
31730;SDS011;18310;55.586;12.286;2023-02-02T18:40:18;36.55;;;17.13;;
31730;SDS011;18310;55.586;12.286;2023-02-02T18:43:24;20.38;;;9.90;;
31730;SDS011;18310;55.586;12.286;2023-02-02T18:46:27;20.38;;;9.13;;
31730;SDS011;18310;55.586;12.286;2023-02-02T18:49:34;19.67;;;10.25;;
31730;SDS011;18310;55.586;12.286;2023-02-02T18:52:40;22.40;;;9.82;;
31730;SDS011;18310;55.586;12.286;2023-02-02T18:55:43;20.23;;;10.07;;
31730;SDS011;18310;55.586;12.286;2023-02-02T18:58:52;22.35;;;9.82;;
31730;SDS011;18310;55.586;12.286;2023-02-02T19:01:59;15.50;;;8.88;;
31730;SDS011;18310;55.586;12.286;2023-02-02T19:05:05;21.98;;;10.75;;
31730;SDS011;18310;55.586;12.286;2023-02-02T19:08:28;23.45;;;11.88;;
31730;SDS011;18310;55.586;12.286;2023-02-02T19:11:35;24.58;;;13.20;;
31730;SDS011;18310;55.586;12.286;2023-02-02T19:14:43;29.73;;;15.80;;
31730;SDS011;18310;55.586;12.286;2023-02-02T19:17:47;28.13;;;14.70;;
31730;SDS011;18310;55.586;12.286;2023-02-02T19:20:53;27.52;;;14.27;;
31730;SDS011;18310;55.586;12.286;2023-02-02T19:23:57;27.70;;;13.37;;